createdAt,value
2023-03-12T00:00:01.843Z,11.93
2023-03-12T00:02:37.285Z,14.07
2023-03-12T00:05:08.387Z,13.97
2023-03-12T00:07:39.073Z,11.63
2023-03-12T00:10:11.664Z,17.10
2023-03-12T00:12:41.282Z,5.43
2023-03-12T00:15:11.915Z,8.83
2023-03-12T00:17:41.369Z,17.77
2023-03-12T00:20:13.928Z,13.47
2023-03-12T00:22:44.489Z,11.27
2023-03-12T00:25:17.665Z,10.17
2023-03-12T00:27:46.645Z,11.63
2023-03-12T00:30:18.841Z,12.80
2023-03-12T00:32:51.004Z,10.10
2023-03-12T00:35:22.654Z,10.10
2023-03-12T00:37:52.362Z,9.03
2023-03-12T00:40:24.875Z,4.30
2023-03-12T00:42:54.081Z,14.47
2023-03-12T00:45:23.079Z,10.70
2023-03-12T00:47:52.256Z,6.20
2023-03-12T00:50:22.760Z,6.00
2023-03-12T00:52:52.187Z,5.50
2023-03-12T00:55:23.528Z,9.97
2023-03-12T00:57:55.395Z,11.30
2023-03-12T01:00:24.769Z,2.63
2023-03-12T01:02:53.901Z,10.53
2023-03-12T01:05:23.415Z,8.53
2023-03-12T01:07:52.862Z,19.67
2023-03-12T01:10:24.167Z,8.47
2023-03-12T01:12:53.357Z,5.53
2023-03-12T01:15:22.359Z,5.80
2023-03-12T01:17:52.898Z,8.10
2023-03-12T01:20:23.432Z,8.57
2023-03-12T01:22:53.840Z,12.47
2023-03-12T01:25:25.080Z,7.67
2023-03-12T01:27:56.181Z,8.47
2023-03-12T01:30:25.859Z,14.23
2023-03-12T01:32:55.236Z,7.57
2023-03-12T01:35:25.279Z,4.23
2023-03-12T01:37:56.340Z,10.70
2023-03-12T01:40:38.388Z,10.53
2023-03-12T01:43:28.357Z,7.37
2023-03-12T01:46:22.064Z,6.77
2023-03-12T01:48:56.441Z,5.70
2023-03-12T01:51:28.719Z,7.43
2023-03-12T01:54:01.973Z,9.37
2023-03-12T01:56:38.410Z,7.93
2023-03-12T01:59:12.603Z,8.30
2023-03-12T02:01:43.148Z,5.20
2023-03-12T02:04:14.335Z,14.07
2023-03-12T02:06:50.150Z,5.57
2023-03-12T02:09:24.758Z,7.50
2023-03-12T02:11:56.324Z,5.93
2023-03-12T02:14:26.318Z,7.50
2023-03-12T02:16:57.386Z,7.43
2023-03-12T02:19:35.285Z,6.93
2023-03-12T02:22:05.507Z,23.93
2023-03-12T02:24:40.775Z,13.30
2023-03-12T02:27:14.792Z,5.70
2023-03-12T02:29:46.690Z,6.83
2023-03-12T02:32:24.007Z,7.17
2023-03-12T02:34:53.351Z,3.57
2023-03-12T02:37:22.746Z,9.10
2023-03-12T02:39:57.722Z,5.90
2023-03-12T02:42:29.396Z,6.83
2023-03-12T02:44:59.326Z,5.10
2023-03-12T02:47:28.584Z,8.13
2023-03-12T02:50:00.174Z,5.17
2023-03-12T02:52:31.219Z,10.03
2023-03-12T02:55:00.822Z,3.20
2023-03-12T02:57:32.400Z,4.77
2023-03-12T03:00:02.151Z,3.73
2023-03-12T03:02:33.241Z,2.93
2023-03-12T03:05:02.514Z,5.23
2023-03-12T03:07:31.753Z,3.80
2023-03-12T03:10:04.843Z,2.90
2023-03-12T03:12:38.331Z,4.47
2023-03-12T03:15:10.271Z,5.60
2023-03-12T03:17:39.997Z,3.60
2023-03-12T03:20:11.648Z,4.40
2023-03-12T03:22:41.129Z,3.90
2023-03-12T03:25:12.376Z,3.57
2023-03-12T03:27:45.505Z,5.80
2023-03-12T03:30:15.409Z,2.93
2023-03-12T03:32:47.949Z,3.73
2023-03-12T03:35:18.489Z,3.37
2023-03-12T03:37:47.398Z,6.77
2023-03-12T03:40:16.484Z,4.10
2023-03-12T03:42:47.095Z,5.00
2023-03-12T03:45:19.809Z,4.30
2023-03-12T03:47:51.383Z,6.23
2023-03-12T03:50:21.144Z,4.37
2023-03-12T03:52:50.667Z,5.63
2023-03-12T03:55:20.784Z,5.47
2023-03-12T03:57:56.410Z,4.50
2023-03-12T04:00:27.465Z,3.43
2023-03-12T04:02:58.562Z,6.40
2023-03-12T04:05:28.481Z,4.63
2023-03-12T04:08:03.363Z,8.30
2023-03-12T04:10:35.064Z,3.73
2023-03-12T04:13:06.068Z,7.00
2023-03-12T04:15:35.461Z,2.80
2023-03-12T04:18:05.828Z,0.53
2023-03-12T04:20:35.450Z,7.87
2023-03-12T04:23:06.453Z,3.07
2023-03-12T04:25:35.364Z,3.90
2023-03-12T04:28:06.896Z,3.60
2023-03-12T04:30:38.529Z,4.03
2023-03-12T04:33:09.523Z,3.03
2023-03-12T04:35:38.600Z,6.27
2023-03-12T04:38:07.810Z,2.50
2023-03-12T04:40:39.637Z,1.50
2023-03-12T04:43:10.382Z,3.20
2023-03-12T04:45:40.451Z,3.20
2023-03-12T04:48:10.975Z,2.90
2023-03-12T04:50:41.181Z,5.33
2023-03-12T04:53:10.838Z,5.40
2023-03-12T04:55:40.339Z,4.20
2023-03-12T04:58:11.046Z,2.77
2023-03-12T05:00:42.059Z,3.93
2023-03-12T05:03:12.371Z,4.90
2023-03-12T05:05:42.003Z,4.00
2023-03-12T05:08:11.626Z,1.23
2023-03-12T05:10:41.190Z,3.77
2023-03-12T05:13:26.666Z,2.00
2023-03-12T05:15:59.244Z,7.73
2023-03-12T05:18:29.010Z,4.17
2023-03-12T05:21:03.298Z,4.10
2023-03-12T05:23:35.596Z,3.67
2023-03-12T05:26:05.293Z,5.17
2023-03-12T05:28:37.219Z,1.80
2023-03-12T05:31:11.472Z,4.73
2023-03-12T05:33:42.426Z,2.17
2023-03-12T05:36:12.769Z,2.33
2023-03-12T05:38:43.229Z,4.40
2023-03-12T05:41:20.706Z,2.77
2023-03-12T05:43:54.336Z,3.03
2023-03-12T05:46:23.990Z,8.37
2023-03-12T05:48:53.720Z,3.00
2023-03-12T05:51:23.714Z,3.30
2023-03-12T05:53:53.136Z,2.67
2023-03-12T05:56:25.713Z,1.70
2023-03-12T05:58:57.169Z,1.97
2023-03-12T06:01:29.133Z,2.30
2023-03-12T06:04:01.177Z,3.47
2023-03-12T06:06:32.669Z,0.83
2023-03-12T06:09:04.547Z,3.40
2023-03-12T06:11:35.744Z,3.03
2023-03-12T06:14:07.392Z,2.03
2023-03-12T06:16:38.741Z,3.40
2023-03-12T06:19:14.591Z,2.97
2023-03-12T06:21:46.205Z,3.97
2023-03-12T06:24:15.772Z,3.93
2023-03-12T06:26:48.400Z,3.63
2023-03-12T06:29:19.073Z,1.03
2023-03-12T06:31:48.689Z,4.43
2023-03-12T06:34:18.147Z,0.97
2023-03-12T06:36:48.437Z,2.10
2023-03-12T06:39:17.505Z,0.83
2023-03-12T06:41:46.608Z,2.00
2023-03-12T06:44:16.046Z,4.60
2023-03-12T06:46:47.094Z,2.57
2023-03-12T06:49:17.145Z,1.73
2023-03-12T06:51:46.605Z,2.23
2023-03-12T06:54:15.374Z,6.30
2023-03-12T06:56:45.008Z,4.03
2023-03-12T06:59:14.510Z,5.70
2023-03-12T07:01:45.579Z,2.37
2023-03-12T07:04:15.966Z,5.57
2023-03-12T07:06:45.435Z,8.90
2023-03-12T07:09:14.949Z,10.90
2023-03-12T07:11:46.722Z,10.10
2023-03-12T07:14:16.217Z,10.57
2023-03-12T07:16:46.007Z,7.27
2023-03-12T07:19:17.357Z,5.93
2023-03-12T07:21:57.171Z,7.93
2023-03-12T07:24:26.913Z,3.90
2023-03-12T07:26:56.708Z,3.17
2023-03-12T07:29:25.833Z,2.73
2023-03-12T07:31:54.842Z,7.77
2023-03-12T07:34:25.852Z,4.73
2023-03-12T07:36:57.311Z,3.23
2023-03-12T07:39:26.331Z,8.50
2023-03-12T07:41:56.171Z,7.57
2023-03-12T07:44:28.981Z,5.43
2023-03-12T07:47:00.163Z,6.33
2023-03-12T07:49:35.441Z,3.70
2023-03-12T07:52:05.211Z,3.20
2023-03-12T07:54:34.280Z,4.57
2023-03-12T07:57:04.094Z,3.87
2023-03-12T07:59:33.593Z,7.83
2023-03-12T08:02:02.500Z,5.47
2023-03-12T08:04:32.022Z,3.27
2023-03-12T08:07:03.883Z,6.43
2023-03-12T08:09:36.351Z,9.13
2023-03-12T08:12:05.889Z,4.10
2023-03-12T08:14:35.356Z,7.03
2023-03-12T08:17:04.646Z,9.27
2023-03-12T08:19:33.657Z,7.07
2023-03-12T08:22:04.267Z,4.27
2023-03-12T08:24:33.122Z,3.27
2023-03-12T08:27:01.946Z,5.80
2023-03-12T08:29:31.377Z,2.33
2023-03-12T08:32:05.056Z,5.47
2023-03-12T08:34:35.528Z,7.37
2023-03-12T08:37:06.742Z,4.70
2023-03-12T08:39:36.255Z,8.67
2023-03-12T08:42:06.249Z,5.60
2023-03-12T08:44:35.833Z,4.67
2023-03-12T08:47:07.509Z,5.27
2023-03-12T08:49:37.213Z,3.50
2023-03-12T08:52:09.839Z,5.07
2023-03-12T08:54:39.324Z,4.33
2023-03-12T08:57:08.896Z,5.30
2023-03-12T09:00:08.044Z,4.83
2023-03-12T09:02:46.338Z,9.37
2023-03-12T09:05:18.421Z,10.97
2023-03-12T09:07:53.042Z,7.87
2023-03-12T09:10:22.880Z,4.23
2023-03-12T09:12:52.791Z,6.93
2023-03-12T09:15:22.227Z,6.53
2023-03-12T09:17:51.739Z,4.17
2023-03-12T09:20:22.542Z,6.67
2023-03-12T09:22:53.717Z,6.23
2023-03-12T09:25:25.588Z,6.60
2023-03-12T09:27:55.150Z,4.37
2023-03-12T09:30:26.766Z,3.23
2023-03-12T09:32:56.458Z,3.83
2023-03-12T09:35:26.067Z,6.53
2023-03-12T09:37:58.095Z,4.33
2023-03-12T09:40:32.887Z,6.57
2023-03-12T09:43:07.674Z,7.43
2023-03-12T09:45:40.589Z,4.13
2023-03-12T09:48:18.322Z,6.20
2023-03-12T09:50:49.532Z,6.77
2023-03-12T09:53:28.792Z,5.93
2023-03-12T09:56:00.730Z,4.17
2023-03-12T09:58:34.914Z,4.23
2023-03-12T10:01:19.842Z,4.23
2023-03-12T10:04:12.270Z,9.47
2023-03-12T10:06:50.995Z,7.20
2023-03-12T10:09:37.387Z,6.77
2023-03-12T10:12:16.294Z,4.37
2023-03-12T10:14:56.657Z,3.83
2023-03-12T10:17:45.799Z,4.57
2023-03-12T10:20:45.932Z,10.73
2023-03-12T10:23:24.204Z,2.50
2023-03-12T10:26:00.049Z,9.73
2023-03-12T10:28:36.272Z,3.70
2023-03-12T10:31:09.420Z,5.30
2023-03-12T10:33:47.866Z,11.87
2023-03-12T10:36:20.740Z,4.60
2023-03-12T10:38:50.787Z,4.77
2023-03-12T10:41:26.070Z,6.87
2023-03-12T10:44:01.225Z,3.73
2023-03-12T10:47:01.212Z,6.90
2023-03-12T10:49:33.575Z,6.57
2023-03-12T10:52:07.222Z,5.65
2023-03-12T10:54:41.121Z,5.82
2023-03-12T10:57:12.813Z,4.32
2023-03-12T10:59:44.822Z,10.02
2023-03-12T11:02:36.202Z,5.22
2023-03-12T11:05:24.853Z,5.75
2023-03-12T11:07:54.565Z,5.22
2023-03-12T11:10:26.811Z,6.63
2023-03-12T11:13:04.543Z,4.50
2023-03-12T11:15:42.642Z,7.70
2023-03-12T11:18:27.847Z,13.57
2023-03-12T11:20:59.853Z,7.40
2023-03-12T11:23:31.820Z,8.50
2023-03-12T11:26:04.300Z,5.28
2023-03-12T11:28:42.667Z,3.42
2023-03-12T11:31:22.767Z,3.25
2023-03-12T11:33:58.839Z,3.50
2023-03-12T11:36:40.300Z,4.43
2023-03-12T11:39:16.923Z,6.23
2023-03-12T11:42:11.157Z,3.78
2023-03-12T11:44:50.648Z,5.32
2023-03-12T11:47:35.662Z,6.55
2023-03-12T11:50:14.976Z,4.53
2023-03-12T11:52:59.173Z,3.85
2023-03-12T11:55:45.538Z,4.80
2023-03-12T11:58:42.915Z,5.50
2023-03-12T12:01:20.378Z,5.80
2023-03-12T12:04:17.129Z,4.33
2023-03-12T12:06:58.444Z,5.50
2023-03-12T12:09:34.722Z,2.83
2023-03-12T12:12:16.942Z,5.17
2023-03-12T12:15:02.787Z,6.50
2023-03-12T12:17:47.762Z,5.23
2023-03-12T12:20:27.762Z,4.70
2023-03-12T12:23:17.810Z,5.53
2023-03-12T12:26:10.190Z,5.70
2023-03-12T12:29:03.828Z,6.00
2023-03-12T12:31:41.468Z,5.57
2023-03-12T12:34:47.628Z,4.97
2023-03-12T12:37:37.170Z,6.00
2023-03-12T12:40:17.782Z,6.03
2023-03-12T12:42:56.534Z,6.23
2023-03-12T12:45:30.880Z,6.30
2023-03-12T12:48:05.028Z,13.10
2023-03-12T12:50:42.115Z,5.47
2023-03-12T12:53:22.041Z,4.70
2023-03-12T12:55:59.245Z,4.50
2023-03-12T12:59:05.240Z,4.10
2023-03-12T13:01:36.846Z,4.50
2023-03-12T13:04:11.581Z,7.87
2023-03-12T13:06:59.114Z,5.60
2023-03-12T13:09:40.356Z,9.33
2023-03-12T13:12:16.475Z,4.00
2023-03-12T13:14:46.783Z,7.40
2023-03-12T13:17:36.251Z,3.53
2023-03-12T13:20:16.552Z,2.90
2023-03-12T13:23:04.530Z,6.00
2023-03-12T13:25:52.370Z,3.90
2023-03-12T13:28:36.496Z,5.43
2023-03-12T13:31:38.289Z,5.53
2023-03-12T13:34:46.525Z,5.40
2023-03-12T13:37:57.456Z,3.00
2023-03-12T13:41:02.669Z,9.83
2023-03-12T13:43:53.051Z,6.53
2023-03-12T13:46:47.633Z,7.57
2023-03-12T13:49:21.743Z,9.67
2023-03-12T13:52:20.533Z,3.40
2023-03-12T13:54:55.667Z,11.43
2023-03-12T13:57:39.450Z,3.60
2023-03-12T14:00:20.220Z,4.47
2023-03-12T14:02:53.352Z,14.07
2023-03-12T14:05:24.439Z,7.73
2023-03-12T14:08:10.139Z,6.13
2023-03-12T14:10:51.995Z,6.50
2023-03-12T14:13:36.140Z,5.27
2023-03-12T14:16:13.154Z,4.33
2023-03-12T14:18:47.189Z,10.47
2023-03-12T14:21:39.859Z,7.23
2023-03-12T14:24:24.855Z,7.53
2023-03-12T14:27:14.894Z,7.10
2023-03-12T14:29:51.295Z,7.00
2023-03-12T14:32:25.716Z,7.30
2023-03-12T14:35:00.287Z,6.30
2023-03-12T14:37:36.154Z,9.23
2023-03-12T14:40:14.847Z,7.23
2023-03-12T14:42:44.266Z,7.07
2023-03-12T14:45:15.654Z,8.03
2023-03-12T14:47:48.028Z,6.67
2023-03-12T14:50:21.817Z,12.40
2023-03-12T14:52:50.869Z,8.23
2023-03-12T14:55:24.352Z,8.77
2023-03-12T14:58:06.981Z,12.43
2023-03-12T15:00:36.436Z,10.17
2023-03-12T15:03:16.771Z,12.43
2023-03-12T15:05:48.111Z,10.20
2023-03-12T15:08:18.771Z,8.87
2023-03-12T15:10:51.687Z,10.90
2023-03-12T15:13:22.745Z,11.57
2023-03-12T15:15:54.839Z,7.33
2023-03-12T15:18:29.314Z,11.83
2023-03-12T15:21:00.469Z,9.03
2023-03-12T15:23:32.684Z,10.47
2023-03-12T15:26:13.952Z,15.67
2023-03-12T15:28:44.145Z,11.17
2023-03-12T15:31:16.119Z,11.63
2023-03-12T15:33:47.304Z,8.70
2023-03-12T15:36:28.159Z,7.87
2023-03-12T15:39:01.946Z,8.43
2023-03-12T15:41:46.029Z,9.37
2023-03-12T15:44:20.420Z,9.57
2023-03-12T15:46:51.256Z,10.87
2023-03-12T15:49:26.284Z,7.77
2023-03-12T15:52:07.699Z,5.17
2023-03-12T15:54:40.768Z,7.70
2023-03-12T15:57:30.822Z,4.90
2023-03-12T16:00:19.100Z,15.23
2023-03-12T16:02:54.667Z,12.10
2023-03-12T16:05:30.347Z,5.30
2023-03-12T16:08:02.544Z,11.97
2023-03-12T16:10:35.541Z,5.97
2023-03-12T16:13:06.157Z,9.07
2023-03-12T16:15:38.925Z,2.97
2023-03-12T16:18:13.785Z,8.63
2023-03-12T16:20:44.742Z,6.80
2023-03-12T16:23:14.712Z,12.13
2023-03-12T16:25:51.609Z,8.50
2023-03-12T16:28:23.004Z,12.33
2023-03-12T16:30:52.731Z,9.13
2023-03-12T16:33:25.272Z,13.20
2023-03-12T16:35:58.029Z,11.70
2023-03-12T16:38:27.720Z,18.73
2023-03-12T16:40:57.255Z,17.37
2023-03-12T16:43:29.477Z,33.40
2023-03-12T16:45:59.059Z,34.57
2023-03-12T16:48:28.141Z,43.27
2023-03-12T16:51:01.281Z,30.00
2023-03-12T16:53:30.824Z,23.50
2023-03-12T16:56:02.615Z,23.97
2023-03-12T16:58:32.978Z,22.17
2023-03-12T17:01:03.672Z,21.23
2023-03-12T17:03:36.414Z,20.83
2023-03-12T17:06:10.196Z,24.93
2023-03-12T17:08:39.308Z,32.27
2023-03-12T17:11:21.789Z,19.07
2023-03-12T17:13:53.932Z,20.77
2023-03-12T17:16:23.667Z,20.10
2023-03-12T17:18:54.585Z,11.30
2023-03-12T17:21:25.578Z,15.53
2023-03-12T17:23:55.171Z,12.17
2023-03-12T17:26:25.118Z,12.50
2023-03-12T17:28:54.324Z,15.17
2023-03-12T17:31:25.144Z,18.43
2023-03-12T17:33:54.369Z,19.03
2023-03-12T17:36:25.996Z,11.50
2023-03-12T17:38:55.093Z,13.77
2023-03-12T17:41:40.401Z,15.80
2023-03-12T17:44:26.220Z,12.43
2023-03-12T17:46:59.973Z,12.13
2023-03-12T17:49:30.037Z,14.80
2023-03-12T17:52:04.031Z,14.70
2023-03-12T17:54:36.847Z,20.87
2023-03-12T17:57:06.539Z,15.60
2023-03-12T17:59:36.121Z,17.93
2023-03-12T18:02:05.838Z,19.80
2023-03-12T18:04:35.592Z,15.77
2023-03-12T18:07:07.537Z,19.23
2023-03-12T18:09:37.073Z,17.50
2023-03-12T18:12:07.269Z,18.13
2023-03-12T18:14:36.963Z,19.50
2023-03-12T18:17:06.344Z,18.20
2023-03-12T18:19:36.179Z,22.57
2023-03-12T18:22:07.938Z,12.63
2023-03-12T18:24:41.136Z,18.43
2023-03-12T18:27:12.363Z,14.33
2023-03-12T18:29:42.789Z,14.87
2023-03-12T18:32:12.656Z,18.20
2023-03-12T18:34:42.912Z,13.40
2023-03-12T18:37:14.492Z,13.93
2023-03-12T18:39:45.096Z,14.30
2023-03-12T18:42:14.972Z,15.33
2023-03-12T18:44:44.583Z,15.77
2023-03-12T18:47:15.165Z,19.53
2023-03-12T18:49:45.457Z,20.97
2023-03-12T18:52:16.935Z,19.93
2023-03-12T18:54:47.373Z,16.13
2023-03-12T18:57:16.920Z,21.23
2023-03-12T18:59:47.838Z,32.97
2023-03-12T19:02:18.268Z,26.53
2023-03-12T19:04:47.986Z,20.03
2023-03-12T19:07:20.234Z,24.63
2023-03-12T19:09:50.122Z,22.67
2023-03-12T19:12:20.740Z,40.20
2023-03-12T19:14:50.304Z,39.17
2023-03-12T19:17:20.245Z,22.63
2023-03-12T19:19:50.298Z,12.23
2023-03-12T19:22:23.280Z,10.67
2023-03-12T19:24:54.488Z,13.27
2023-03-12T19:27:23.923Z,14.83
2023-03-12T19:29:54.768Z,18.63
2023-03-12T19:32:27.789Z,17.73
2023-03-12T19:35:02.848Z,15.90
2023-03-12T19:37:34.909Z,13.73
2023-03-12T19:40:07.340Z,16.23
2023-03-12T19:42:36.886Z,22.20
2023-03-12T19:45:10.547Z,21.13
2023-03-12T19:47:40.429Z,24.00
2023-03-12T19:50:10.499Z,23.33
2023-03-12T19:52:41.991Z,21.70
2023-03-12T19:55:12.521Z,20.37
2023-03-12T19:57:41.821Z,28.37
2023-03-12T20:00:14.227Z,22.13
2023-03-12T20:02:44.281Z,18.43
2023-03-12T20:05:14.900Z,17.03
2023-03-12T20:07:48.027Z,22.67
2023-03-12T20:10:18.047Z,19.10
2023-03-12T20:12:47.628Z,21.30
2023-03-12T20:15:19.018Z,25.53
2023-03-12T20:17:48.872Z,20.30
2023-03-12T20:20:19.889Z,18.97
2023-03-12T20:22:50.858Z,15.93
2023-03-12T20:25:20.473Z,23.13
2023-03-12T20:27:49.869Z,16.40
2023-03-12T20:30:30.295Z,21.13
2023-03-12T20:33:01.943Z,12.77
2023-03-12T20:35:31.732Z,24.87
2023-03-12T20:38:03.128Z,25.53
2023-03-12T20:40:33.479Z,19.77
2023-03-12T20:43:05.402Z,25.40
2023-03-12T20:45:36.270Z,22.50
2023-03-12T20:48:08.247Z,18.27
2023-03-12T20:50:42.829Z,12.00
2023-03-12T20:53:14.131Z,12.90
2023-03-12T20:55:43.862Z,11.97
2023-03-12T20:58:15.314Z,13.70
2023-03-12T21:00:44.870Z,9.93
2023-03-12T21:03:20.252Z,7.87
2023-03-12T21:05:56.931Z,7.10
2023-03-12T21:08:28.645Z,8.33
2023-03-12T21:10:58.753Z,9.90
2023-03-12T21:13:30.973Z,6.03
2023-03-12T21:16:00.714Z,9.17
2023-03-12T21:18:30.902Z,9.97
2023-03-12T21:21:04.146Z,11.07
2023-03-12T21:23:36.581Z,12.30
2023-03-12T21:26:09.538Z,11.60
2023-03-12T21:28:40.936Z,9.43
2023-03-12T21:31:12.600Z,10.67
2023-03-12T21:33:42.837Z,11.50
2023-03-12T21:36:18.707Z,10.57
2023-03-12T21:38:50.559Z,11.20
2023-03-12T21:41:20.948Z,10.57
2023-03-12T21:43:50.700Z,12.87
2023-03-12T21:46:25.358Z,12.07
2023-03-12T21:48:57.189Z,14.40
2023-03-12T21:51:28.501Z,15.90
2023-03-12T21:54:00.968Z,11.13
2023-03-12T21:56:31.078Z,14.03
2023-03-12T21:59:02.272Z,17.47
2023-03-12T22:01:31.595Z,21.87
2023-03-12T22:04:01.427Z,18.07
2023-03-12T22:06:31.419Z,23.87
2023-03-12T22:09:02.014Z,17.23
2023-03-12T22:11:31.895Z,15.77
2023-03-12T22:14:01.362Z,16.80
2023-03-12T22:16:30.919Z,19.87
2023-03-12T22:19:00.308Z,18.90
2023-03-12T22:21:33.802Z,17.80
2023-03-12T22:24:04.642Z,18.97
2023-03-12T22:27:02.267Z,17.67
2023-03-12T22:29:32.234Z,14.53
2023-03-12T22:32:01.361Z,18.33
2023-03-12T22:34:31.282Z,17.93
2023-03-12T22:37:00.526Z,16.50
2023-03-12T22:39:32.519Z,15.20
2023-03-12T22:42:02.544Z,15.03
2023-03-12T22:44:31.761Z,15.20
2023-03-12T22:47:01.590Z,15.27
2023-03-12T22:49:33.301Z,19.07
2023-03-12T22:52:02.790Z,14.40
2023-03-12T22:54:34.098Z,18.97
2023-03-12T22:57:03.586Z,13.27
2023-03-12T22:59:32.652Z,13.53
2023-03-12T23:02:02.472Z,17.17
2023-03-12T23:04:32.351Z,15.53
2023-03-12T23:07:13.611Z,15.13
2023-03-12T23:09:45.439Z,14.87
2023-03-12T23:12:15.142Z,14.00
2023-03-12T23:14:45.820Z,13.57
2023-03-12T23:17:15.373Z,15.00
2023-03-12T23:19:44.716Z,15.20
2023-03-12T23:22:14.095Z,16.37
2023-03-12T23:24:45.456Z,13.73
2023-03-12T23:27:16.822Z,19.50
2023-03-12T23:29:46.447Z,18.30
2023-03-12T23:32:15.834Z,16.23
2023-03-12T23:34:45.481Z,13.10
2023-03-12T23:37:14.715Z,15.87
2023-03-12T23:39:54.558Z,13.73
2023-03-12T23:42:24.666Z,11.40
2023-03-12T23:44:54.190Z,10.20
2023-03-12T23:47:23.865Z,14.83
2023-03-12T23:49:52.988Z,11.00
2023-03-12T23:52:22.085Z,8.10
2023-03-12T23:54:53.146Z,10.90
2023-03-12T23:57:22.552Z,12.07
2023-03-12T23:59:53.410Z,13.33
